Time;durP1;ratioP1;P1;durP2;ratioP2;P2;SDS_P1;SDS_P2;PMS_P1;PMS_P2;Temp;Humidity;BMP_temperature;BMP_pressure;BME280_temperature;BME280_humidity;BME280_pressure;Samples;Min_cycle;Max_cycle;Signal;HPM_P1;HPM_P2
2023/06/22 00:01:19;;;;;;;39.50;32.60;;;17.00;99.90;;;;;;5083753;28;20059;-72
2023/06/22 00:03:46;;;;;;;39.03;32.40;;;16.90;99.90;;;;;;5077984;28;20050;-72
2023/06/22 00:06:13;;;;;;;42.72;33.85;;;17.00;99.90;;;;;;5069297;28;20055;-71
2023/06/22 00:08:44;;;;;;;39.42;35.15;;;17.00;99.90;;;;;;5092230;28;20043;-71
2023/06/22 00:11:11;;;;;;;38.90;33.25;;;16.90;99.90;;;;;;5056214;28;20036;-70
2023/06/22 00:13:38;;;;;;;37.55;32.40;;;16.80;99.90;;;;;;5075589;28;20517;-71
2023/06/22 00:16:05;;;;;;;40.13;32.25;;;16.80;99.90;;;;;;5084574;28;20044;-70
2023/06/22 00:18:32;;;;;;;39.10;32.92;;;16.80;99.90;;;;;;5091272;28;20493;-71
2023/06/22 00:20:59;;;;;;;39.03;32.72;;;16.70;99.90;;;;;;5070876;28;20579;-71
2023/06/22 00:23:26;;;;;;;39.65;31.88;;;16.80;99.90;;;;;;5083710;28;20039;-70
2023/06/22 00:25:53;;;;;;;37.38;30.20;;;16.80;99.90;;;;;;5071069;28;20043;-71
2023/06/22 00:28:20;;;;;;;42.72;31.95;;;16.70;99.90;;;;;;5070730;28;21304;-71
2023/06/22 00:30:50;;;;;;;38.42;30.55;;;16.70;99.90;;;;;;5077178;28;20452;-71
2023/06/22 00:33:18;;;;;;;37.38;33.30;;;16.90;99.90;;;;;;5069775;28;20056;-71
2023/06/22 00:35:45;;;;;;;40.42;33.85;;;17.10;99.90;;;;;;5057637;28;20084;-70
2023/06/22 00:38:12;;;;;;;48.42;35.92;;;17.10;99.90;;;;;;5086003;28;20059;-70
2023/06/22 00:40:41;;;;;;;41.97;34.92;;;17.00;99.90;;;;;;5087368;28;20051;-70
2023/06/22 00:43:08;;;;;;;44.55;35.13;;;17.00;99.90;;;;;;5055556;28;20056;-70
2023/06/22 00:45:35;;;;;;;46.30;36.08;;;17.10;99.90;;;;;;5077256;28;20518;-71
2023/06/22 00:48:02;;;;;;;47.83;36.42;;;17.00;99.90;;;;;;5083859;28;20043;-70
2023/06/22 00:50:35;;;;;;;48.53;37.78;;;16.80;99.90;;;;;;5074867;28;20063;-71
2023/06/22 00:53:08;;;;;;;44.55;34.47;;;16.90;99.90;;;;;;5086381;28;20047;-70
2023/06/22 00:55:38;;;;;;;41.92;33.83;;;16.90;99.90;;;;;;5072553;28;20078;-70
2023/06/22 00:58:10;;;;;;;51.72;36.75;;;17.00;99.90;;;;;;5049808;28;20039;-70
2023/06/22 01:00:38;;;;;;;41.28;34.40;;;17.10;99.90;;;;;;5071179;28;20608;-71
2023/06/22 01:03:08;;;;;;;40.85;34.33;;;17.00;99.90;;;;;;5067661;28;20877;-71
2023/06/22 01:05:36;;;;;;;39.72;35.40;;;17.10;99.90;;;;;;5070827;28;20039;-71
2023/06/22 01:08:09;;;;;;;36.55;31.60;;;17.30;99.90;;;;;;5070072;28;20132;-71
2023/06/22 01:10:51;;;;;;;40.83;33.55;;;17.30;99.90;;;;;;5056318;28;20555;-71
2023/06/22 01:13:46;;;;;;;39.92;33.55;;;17.40;99.90;;;;;;5071137;28;20529;-71
2023/06/22 01:16:25;;;;;;;40.73;33.50;;;17.40;99.90;;;;;;5083745;28;20036;-71
2023/06/22 01:18:55;;;;;;;38.20;32.97;;;17.30;99.90;;;;;;5085346;28;20366;-70
2023/06/22 01:21:25;;;;;;;35.55;31.77;;;17.20;99.90;;;;;;5053881;28;20044;-69
2023/06/22 01:24:03;;;;;;;36.47;31.88;;;17.20;99.90;;;;;;5088488;28;20711;-70
2023/06/22 01:26:51;;;;;;;37.47;32.55;;;17.20;99.90;;;;;;5072253;28;20040;-72
2023/06/22 01:29:21;;;;;;;41.78;34.33;;;17.30;99.90;;;;;;5067645;28;20539;-71
2023/06/22 01:31:48;;;;;;;40.55;32.90;;;17.40;99.90;;;;;;5071675;28;20122;-71
2023/06/22 01:34:17;;;;;;;48.83;34.38;;;17.40;99.90;;;;;;5081537;28;20101;-72
2023/06/22 01:36:45;;;;;;;42.90;35.17;;;17.60;99.90;;;;;;5066339;28;20828;-72
2023/06/22 01:39:12;;;;;;;41.60;35.72;;;17.60;99.90;;;;;;5080660;28;20052;-72
2023/06/22 01:41:41;;;;;;;42.83;35.67;;;17.60;99.90;;;;;;5058089;28;20036;-72
2023/06/22 01:44:09;;;;;;;41.28;34.72;;;17.60;99.90;;;;;;5082872;28;20463;-70
2023/06/22 01:46:37;;;;;;;40.83;34.90;;;17.50;99.90;;;;;;5080728;28;20070;-69
2023/06/22 01:49:04;;;;;;;36.95;32.88;;;17.50;99.90;;;;;;5069185;28;20059;-71
2023/06/22 01:51:32;;;;;;;39.80;35.40;;;17.60;99.90;;;;;;5051989;28;20130;-71
2023/06/22 01:53:59;;;;;;;37.88;33.75;;;17.50;99.90;;;;;;5066971;28;20106;-71
2023/06/22 01:56:26;;;;;;;40.85;35.35;;;17.50;99.90;;;;;;5081884;28;20054;-71
2023/06/22 01:59:21;;;;;;;37.58;32.40;;;17.50;99.90;;;;;;5059200;28;20048;-72
2023/06/22 02:02:09;;;;;;;36.73;32.73;;;17.60;99.90;;;;;;5073835;28;20138;-71
2023/06/22 02:04:47;;;;;;;39.40;35.13;;;17.50;99.90;;;;;;5082263;28;20044;-72
2023/06/22 02:07:17;;;;;;;39.33;34.60;;;17.60;99.90;;;;;;5067160;28;20121;-70
2023/06/22 02:09:46;;;;;;;39.35;34.33;;;17.80;99.90;;;;;;5071307;28;20042;-71
2023/06/22 02:12:18;;;;;;;42.42;35.70;;;17.80;99.90;;;;;;5087501;28;20028;-72
2023/06/22 02:14:47;;;;;;;41.38;35.25;;;17.70;99.90;;;;;;5069452;28;20052;-71
2023/06/22 02:17:14;;;;;;;39.45;35.17;;;17.50;99.90;;;;;;5066497;28;20917;-72
2023/06/22 02:19:41;;;;;;;39.42;34.50;;;17.70;99.90;;;;;;5068307;28;20055;-71
2023/06/22 02:22:08;;;;;;;40.92;34.88;;;17.70;99.90;;;;;;5084598;28;20078;-72
2023/06/22 02:24:36;;;;;;;40.25;35.40;;;17.70;99.90;;;;;;5057286;28;20064;-72
2023/06/22 02:27:03;;;;;;;41.38;33.10;;;17.70;99.90;;;;;;5084113;28;20106;-71
2023/06/22 02:29:31;;;;;;;40.15;33.90;;;17.60;99.90;;;;;;5080862;28;20044;-72
2023/06/22 02:31:58;;;;;;;43.13;33.95;;;17.60;99.90;;;;;;5066264;28;20036;-72
2023/06/22 02:34:25;;;;;;;41.08;34.53;;;17.60;99.90;;;;;;5071278;28;20060;-71
2023/06/22 02:36:52;;;;;;;40.92;34.63;;;17.70;99.90;;;;;;5062736;28;20047;-71
2023/06/22 02:39:23;;;;;;;36.83;32.30;;;17.90;99.90;;;;;;5067770;28;20043;-71
2023/06/22 02:41:52;;;;;;;38.08;32.83;;;18.00;99.90;;;;;;5069705;28;20043;-72
2023/06/22 02:44:20;;;;;;;40.90;33.90;;;18.10;99.90;;;;;;5056540;28;20671;-72
2023/06/22 02:46:48;;;;;;;40.35;33.38;;;18.00;99.90;;;;;;5073092;28;20090;-72
2023/06/22 02:49:16;;;;;;;41.83;33.38;;;17.80;99.90;;;;;;5061830;28;20059;-72
2023/06/22 02:51:46;;;;;;;39.85;33.58;;;17.70;99.90;;;;;;5050526;28;20044;-72
2023/06/22 02:54:16;;;;;;;39.28;35.08;;;17.60;99.90;;;;;;5067172;28;20044;-71
2023/06/22 02:56:43;;;;;;;37.08;33.08;;;17.60;99.90;;;;;;5067480;28;20048;-72
2023/06/22 02:59:11;;;;;;;37.65;31.50;;;17.70;99.90;;;;;;5075920;28;20589;-71
2023/06/22 03:01:39;;;;;;;36.58;31.50;;;17.70;99.90;;;;;;5078267;28;20134;-72
2023/06/22 03:04:16;;;;;;;36.47;30.40;;;17.80;99.90;;;;;;5060206;28;20047;-72
2023/06/22 03:06:43;;;;;;;38.13;31.08;;;17.80;99.90;;;;;;5076231;28;20671;-72
2023/06/22 03:09:10;;;;;;;35.58;30.88;;;17.90;99.90;;;;;;5065356;28;20133;-71
2023/06/22 03:11:37;;;;;;;41.97;31.48;;;17.90;99.90;;;;;;5077618;28;20055;-73
2023/06/22 03:14:04;;;;;;;36.22;30.13;;;17.90;99.90;;;;;;5073921;28;20635;-70
2023/06/22 03:16:31;;;;;;;36.13;29.58;;;17.90;99.90;;;;;;5062993;28;20056;-71
2023/06/22 03:18:58;;;;;;;39.50;31.35;;;17.90;99.90;;;;;;5060578;28;20075;-70
2023/06/22 03:21:28;;;;;;;37.70;29.63;;;17.90;99.90;;;;;;5066630;28;20074;-72
2023/06/22 03:23:55;;;;;;;36.78;30.23;;;17.80;99.90;;;;;;5077062;28;20078;-72
2023/06/22 03:26:23;;;;;;;35.30;28.83;;;17.80;99.90;;;;;;5062823;28;20388;-71
2023/06/22 03:28:50;;;;;;;30.80;27.30;;;17.80;99.90;;;;;;5075230;28;20051;-70
2023/06/22 03:31:21;;;;;;;33.30;28.88;;;17.90;99.90;;;;;;5054540;28;20031;-71
2023/06/22 03:33:49;;;;;;;30.50;27.13;;;18.00;99.90;;;;;;5080062;28;20077;-71
2023/06/22 03:36:20;;;;;;;30.98;27.65;;;18.00;99.90;;;;;;5071549;28;20047;-72
2023/06/22 03:38:48;;;;;;;34.53;30.33;;;18.00;99.90;;;;;;5076632;28;20059;-72
2023/06/22 03:41:16;;;;;;;34.63;30.88;;;18.10;99.90;;;;;;5061417;28;20146;-70
2023/06/22 03:43:43;;;;;;;33.42;29.30;;;18.00;99.90;;;;;;5094084;28;20043;-71
2023/06/22 03:46:10;;;;;;;35.55;30.08;;;18.10;99.90;;;;;;5084872;28;20046;-72
2023/06/22 03:48:38;;;;;;;36.78;30.60;;;18.10;99.90;;;;;;5079966;28;20036;-71
2023/06/22 03:51:04;;;;;;;36.35;30.98;;;18.20;99.90;;;;;;5078578;28;20044;-71
2023/06/22 03:53:31;;;;;;;36.58;29.63;;;18.10;99.90;;;;;;5075110;28;20055;-71
2023/06/22 03:55:58;;;;;;;33.80;28.98;;;18.10;99.90;;;;;;5072055;28;20066;-71
2023/06/22 03:58:24;;;;;;;34.20;29.35;;;18.10;99.90;;;;;;5067329;28;20090;-71
2023/06/22 04:00:52;;;;;;;35.47;31.00;;;18.10;99.90;;;;;;5084792;28;20039;-71
2023/06/22 04:03:19;;;;;;;32.00;28.63;;;18.10;99.90;;;;;;5084911;28;20532;-71
2023/06/22 04:05:48;;;;;;;34.92;28.40;;;18.10;99.90;;;;;;5083320;28;20047;-71
2023/06/22 04:08:16;;;;;;;34.05;30.15;;;18.20;99.90;;;;;;5084760;28;20048;-70
2023/06/22 04:10:43;;;;;;;38.30;30.10;;;18.30;99.90;;;;;;5059527;28;20036;-70
2023/06/22 04:13:09;;;;;;;34.97;29.73;;;18.30;99.90;;;;;;5089627;28;20158;-72
2023/06/22 04:15:36;;;;;;;33.28;29.73;;;18.20;99.90;;;;;;5074770;28;20047;-70
2023/06/22 04:18:03;;;;;;;37.17;29.63;;;18.30;99.90;;;;;;5086254;28;20055;-72
2023/06/22 04:20:31;;;;;;;32.22;28.83;;;18.30;99.90;;;;;;5090379;28;20391;-71
2023/06/22 04:22:59;;;;;;;33.25;29.90;;;18.30;99.90;;;;;;5089799;28;20054;-71
2023/06/22 04:25:25;;;;;;;33.20;29.85;;;18.40;99.90;;;;;;5069388;28;20067;-71
2023/06/22 04:27:52;;;;;;;37.40;29.17;;;18.50;99.90;;;;;;5085844;28;20070;-69
2023/06/22 04:30:19;;;;;;;34.35;30.48;;;18.60;99.90;;;;;;5066466;28;20069;-70
2023/06/22 04:32:57;;;;;;;36.13;32.25;;;18.60;99.90;;;;;;5082496;28;20097;-71
2023/06/22 04:35:24;;;;;;;34.53;31.00;;;18.60;99.90;;;;;;5080597;28;20082;-70
2023/06/22 04:37:54;;;;;;;32.97;28.80;;;18.60;99.90;;;;;;5074023;28;20214;-71
2023/06/22 04:40:22;;;;;;;35.67;30.50;;;18.70;99.90;;;;;;5084746;28;20043;-70
2023/06/22 04:42:53;;;;;;;34.33;30.80;;;18.70;99.90;;;;;;5089442;28;20043;-71
2023/06/22 04:45:20;;;;;;;35.25;31.75;;;18.60;99.90;;;;;;5083237;28;20067;-71
2023/06/22 04:47:47;;;;;;;35.08;31.23;;;18.80;99.90;;;;;;5092761;28;20067;-71
2023/06/22 04:50:14;;;;;;;35.58;31.83;;;18.90;99.90;;;;;;5082155;28;20101;-71
2023/06/22 04:52:41;;;;;;;37.40;31.38;;;19.00;99.90;;;;;;5061911;28;20112;-70
2023/06/22 04:55:08;;;;;;;33.05;29.38;;;18.90;99.90;;;;;;5075562;28;20102;-70
2023/06/22 04:57:35;;;;;;;31.65;27.98;;;18.90;99.90;;;;;;5087025;28;20065;-70
2023/06/22 05:00:12;;;;;;;33.60;30.00;;;18.80;99.90;;;;;;5090073;28;20036;-70
2023/06/22 05:02:40;;;;;;;33.53;30.13;;;18.90;99.90;;;;;;5071436;28;20143;-71
2023/06/22 05:05:08;;;;;;;35.97;30.13;;;18.90;99.90;;;;;;5083010;28;20071;-70
2023/06/22 05:07:36;;;;;;;34.25;30.73;;;19.00;99.90;;;;;;5076518;28;22382;-70
2023/06/22 05:10:03;;;;;;;33.08;29.55;;;19.10;99.90;;;;;;5078336;28;20068;-70
2023/06/22 05:12:30;;;;;;;35.03;30.60;;;19.00;99.90;;;;;;5079405;28;20044;-71
2023/06/22 05:14:57;;;;;;;32.00;28.70;;;19.10;99.90;;;;;;5098146;28;20044;-70
2023/06/22 05:17:24;;;;;;;28.52;25.83;;;19.10;99.90;;;;;;5054544;28;20160;-71
2023/06/22 05:19:52;;;;;;;31.00;27.85;;;19.10;99.90;;;;;;5084374;28;20051;-70
2023/06/22 05:22:19;;;;;;;28.45;25.77;;;19.20;99.90;;;;;;5069760;28;20055;-70
2023/06/22 05:24:46;;;;;;;30.02;26.98;;;19.10;99.90;;;;;;5086714;28;20046;-70
2023/06/22 05:27:13;;;;;;;28.70;25.88;;;19.10;99.90;;;;;;5072838;28;20066;-71
2023/06/22 05:29:40;;;;;;;29.33;26.60;;;19.20;99.90;;;;;;5067846;28;20039;-71
2023/06/22 05:32:07;;;;;;;28.75;26.15;;;19.10;99.90;;;;;;5068586;28;20048;-71
2023/06/22 05:34:34;;;;;;;27.50;24.80;;;19.20;99.90;;;;;;5082469;28;20043;-71
2023/06/22 05:37:02;;;;;;;27.20;24.70;;;19.30;99.90;;;;;;5088398;28;20118;-70
2023/06/22 05:39:29;;;;;;;27.58;24.85;;;19.40;99.90;;;;;;5067656;28;20096;-71
2023/06/22 05:41:56;;;;;;;28.88;26.38;;;19.40;99.90;;;;;;5079521;28;20066;-70
2023/06/22 05:44:22;;;;;;;29.00;26.55;;;19.30;99.90;;;;;;5071083;28;20130;-71
2023/06/22 05:46:49;;;;;;;30.30;27.67;;;19.30;99.90;;;;;;5074113;28;20047;-71
2023/06/22 05:49:16;;;;;;;31.83;28.85;;;19.30;99.90;;;;;;5089263;28;20716;-70
2023/06/22 05:51:43;;;;;;;31.55;28.45;;;19.20;99.90;;;;;;5072418;28;20097;-71
2023/06/22 05:54:10;;;;;;;30.90;28.00;;;19.10;99.90;;;;;;5087566;28;20047;-70
2023/06/22 05:56:37;;;;;;;28.33;25.52;;;19.10;99.90;;;;;;5087562;28;20040;-70
2023/06/22 05:59:04;;;;;;;28.58;25.88;;;19.00;99.90;;;;;;5084505;28;20148;-72
2023/06/22 06:01:35;;;;;;;27.10;24.77;;;19.00;99.90;;;;;;5069345;28;20109;-70
2023/06/22 06:04:07;;;;;;;26.88;24.52;;;19.10;99.90;;;;;;5072999;28;20048;-70
2023/06/22 06:06:37;;;;;;;26.10;23.83;;;19.10;99.90;;;;;;5063622;28;20063;-70
2023/06/22 06:09:04;;;;;;;26.23;23.83;;;19.20;99.90;;;;;;5062076;28;20035;-70
2023/06/22 06:11:31;;;;;;;26.58;24.27;;;19.20;99.90;;;;;;5082015;28;20036;-70
2023/06/22 06:13:58;;;;;;;26.40;24.20;;;19.20;99.90;;;;;;5072840;28;20737;-71
2023/06/22 06:16:25;;;;;;;26.40;24.08;;;19.30;99.90;;;;;;5068658;28;20090;-71
2023/06/22 06:18:54;;;;;;;26.25;24.20;;;19.30;99.90;;;;;;5083565;28;20513;-70
2023/06/22 06:21:21;;;;;;;26.40;24.33;;;19.40;99.90;;;;;;5088478;28;20047;-69
2023/06/22 06:23:48;;;;;;;27.92;25.73;;;19.60;99.90;;;;;;5086511;28;20152;-70
2023/06/22 06:26:16;;;;;;;25.65;23.67;;;19.50;99.90;;;;;;5083588;28;20105;-70
2023/06/22 06:28:43;;;;;;;27.13;25.02;;;19.60;99.90;;;;;;5065782;28;20044;-70
2023/06/22 06:31:11;;;;;;;30.30;27.65;;;19.70;99.90;;;;;;5081750;28;20686;-69
2023/06/22 06:33:38;;;;;;;30.98;28.23;;;19.90;99.90;;;;;;5088630;28;20608;-70
2023/06/22 06:36:05;;;;;;;29.13;26.52;;;19.80;99.90;;;;;;5069914;28;20040;-69
2023/06/22 06:38:32;;;;;;;28.10;25.73;;;19.80;99.90;;;;;;5072612;28;20641;-74
2023/06/22 06:40:59;;;;;;;28.40;26.00;;;19.60;99.90;;;;;;5064537;28;20083;-69
2023/06/22 06:43:26;;;;;;;27.02;24.63;;;19.50;99.90;;;;;;5071860;28;20044;-70
2023/06/22 06:45:53;;;;;;;27.00;24.90;;;19.40;99.90;;;;;;5075369;28;20718;-70
2023/06/22 06:48:20;;;;;;;27.00;24.30;;;19.50;99.90;;;;;;5073666;28;20120;-71
2023/06/22 06:50:47;;;;;;;26.75;24.30;;;19.50;99.90;;;;;;5086523;28;20100;-70
2023/06/22 06:53:14;;;;;;;26.17;24.02;;;19.50;99.90;;;;;;5061337;28;20039;-75
2023/06/22 06:55:40;;;;;;;28.02;25.63;;;19.50;99.90;;;;;;5083287;28;20043;-72
2023/06/22 06:58:09;;;;;;;29.13;26.40;;;19.60;99.90;;;;;;5066179;28;20043;-72
2023/06/22 07:00:36;;;;;;;27.75;25.30;;;19.70;99.90;;;;;;5087015;28;20048;-73
2023/06/22 07:03:04;;;;;;;30.00;27.30;;;19.80;99.90;;;;;;5087239;28;20097;-73
2023/06/22 07:05:30;;;;;;;28.75;26.20;;;19.90;99.90;;;;;;5084244;28;20343;-73
2023/06/22 07:07:57;;;;;;;27.60;24.80;;;20.00;99.90;;;;;;5072980;28;20744;-76
2023/06/22 07:10:24;;;;;;;26.05;23.45;;;20.10;99.90;;;;;;5071036;28;20051;-74
2023/06/22 07:12:51;;;;;;;27.58;24.85;;;20.10;99.90;;;;;;5077447;28;20055;-73
2023/06/22 07:15:18;;;;;;;26.52;24.10;;;20.10;99.90;;;;;;5086117;28;20040;-73
2023/06/22 07:17:45;;;;;;;27.40;24.80;;;20.10;99.90;;;;;;5071176;28;20047;-73
2023/06/22 07:20:12;;;;;;;27.35;24.77;;;20.30;99.90;;;;;;5084883;28;20049;-73
2023/06/22 07:22:41;;;;;;;25.45;23.08;;;20.30;99.90;;;;;;5086046;28;20373;-74
2023/06/22 07:25:14;;;;;;;27.35;24.73;;;20.30;99.90;;;;;;5073766;28;20678;-73
2023/06/22 07:27:47;;;;;;;25.75;23.15;;;20.30;99.90;;;;;;5069189;28;20043;-73
2023/06/22 07:30:14;;;;;;;25.50;22.88;;;20.30;99.90;;;;;;5088529;28;20051;-74
2023/06/22 07:32:41;;;;;;;26.65;23.90;;;20.30;99.90;;;;;;5068506;28;20465;-73
2023/06/22 07:35:08;;;;;;;26.52;24.13;;;20.20;99.90;;;;;;5078271;28;20143;-74
2023/06/22 07:37:35;;;;;;;23.38;21.10;;;20.20;99.90;;;;;;5067461;28;20047;-75
2023/06/22 07:40:06;;;;;;;23.15;20.85;;;20.60;99.90;;;;;;5078931;28;20039;-73
2023/06/22 07:42:32;;;;;;;24.00;21.58;;;20.40;99.90;;;;;;5056327;28;20040;-73
2023/06/22 07:45:01;;;;;;;23.88;21.63;;;20.40;99.90;;;;;;5090933;28;20048;-74
2023/06/22 07:47:28;;;;;;;22.33;20.17;;;20.30;99.90;;;;;;5081610;28;20085;-72
2023/06/22 07:49:58;;;;;;;21.60;19.50;;;20.20;99.90;;;;;;5082577;28;20511;-73
2023/06/22 07:52:25;;;;;;;21.38;19.30;;;20.10;99.90;;;;;;5109443;28;20048;-73
2023/06/22 07:54:52;;;;;;;21.17;19.13;;;20.20;99.90;;;;;;5096634;28;20058;-73
2023/06/22 07:57:19;;;;;;;20.23;18.42;;;20.30;99.90;;;;;;5078113;28;20048;-74
2023/06/22 07:59:47;;;;;;;21.02;19.23;;;20.50;99.90;;;;;;5082671;28;20987;-74
2023/06/22 08:02:14;;;;;;;21.80;19.73;;;20.60;99.90;;;;;;5091553;28;20039;-74
2023/06/22 08:04:41;;;;;;;23.38;21.30;;;20.80;99.90;;;;;;5069412;28;20096;-74
2023/06/22 08:07:08;;;;;;;22.17;20.27;;;20.90;99.90;;;;;;5075709;28;20135;-74
2023/06/22 08:09:35;;;;;;;21.02;19.23;;;21.00;99.90;;;;;;5082771;28;20044;-74
2023/06/22 08:12:02;;;;;;;20.38;18.77;;;21.20;99.90;;;;;;5082439;28;20031;-74
2023/06/22 08:14:29;;;;;;;21.20;19.60;;;21.40;99.90;;;;;;5059043;28;20043;-73
2023/06/22 08:16:56;;;;;;;20.42;18.92;;;21.50;99.90;;;;;;5077867;28;20043;-74
2023/06/22 08:19:23;;;;;;;21.70;19.70;;;21.40;99.90;;;;;;5091745;28;20048;-74
2023/06/22 08:21:50;;;;;;;22.13;20.23;;;21.20;99.90;;;;;;5067894;28;20059;-74
2023/06/22 08:24:16;;;;;;;22.23;20.42;;;21.30;99.90;;;;;;5072147;28;20583;-74
2023/06/22 08:26:43;;;;;;;19.30;17.77;;;21.50;99.90;;;;;;5079379;28;20571;-75
2023/06/22 08:29:10;;;;;;;23.92;22.15;;;21.80;99.90;;;;;;5073351;28;20035;-75
2023/06/22 08:31:37;;;;;;;26.48;24.35;;;22.10;99.90;;;;;;5065842;28;20085;-74
2023/06/22 08:34:04;;;;;;;27.02;25.13;;;22.10;99.90;;;;;;5070029;28;20121;-75
2023/06/22 08:36:34;;;;;;;29.45;27.35;;;22.30;99.90;;;;;;5063209;28;20074;-74
2023/06/22 08:39:03;;;;;;;30.33;28.00;;;22.50;99.90;;;;;;5071614;28;20036;-75
2023/06/22 08:41:30;;;;;;;29.63;27.50;;;22.80;99.90;;;;;;5073096;28;20036;-73
2023/06/22 08:43:57;;;;;;;31.33;28.73;;;22.80;99.90;;;;;;5069587;28;20031;-74
2023/06/22 08:46:30;;;;;;;30.33;28.23;;;23.10;99.90;;;;;;5058871;28;20044;-74
2023/06/22 08:49:00;;;;;;;30.27;28.13;;;23.10;99.90;;;;;;5083277;28;20275;-75
2023/06/22 08:51:27;;;;;;;29.17;27.25;;;23.10;99.90;;;;;;5083536;28;20252;-73
2023/06/22 08:53:54;;;;;;;32.28;29.92;;;23.20;99.90;;;;;;5085031;28;20055;-74
2023/06/22 08:56:20;;;;;;;29.65;27.58;;;23.30;99.90;;;;;;5067963;28;20031;-73
2023/06/22 08:58:47;;;;;;;31.67;29.48;;;23.30;99.90;;;;;;5084635;28;20076;-73
2023/06/22 09:01:15;;;;;;;32.33;30.23;;;23.50;99.90;;;;;;5080790;28;20040;-73
2023/06/22 09:03:42;;;;;;;34.10;31.80;;;23.80;99.90;;;;;;5066341;28;20043;-73
2023/06/22 09:06:09;;;;;;;34.63;32.33;;;23.80;99.90;;;;;;5060894;28;20577;-74
2023/06/22 09:08:36;;;;;;;34.00;31.67;;;23.90;99.90;;;;;;5084132;28;20487;-74
2023/06/22 09:11:03;;;;;;;34.03;31.63;;;24.10;99.90;;;;;;5069620;28;20052;-73
2023/06/22 09:13:31;;;;;;;33.53;31.23;;;23.70;99.90;;;;;;5087015;28;20043;-72
2023/06/22 09:15:58;;;;;;;35.67;33.22;;;23.90;99.90;;;;;;5084722;28;20040;-73
2023/06/22 09:18:25;;;;;;;33.78;31.38;;;23.90;99.90;;;;;;5084865;28;20132;-72
2023/06/22 09:20:52;;;;;;;34.58;32.17;;;24.40;99.90;;;;;;5084270;28;20051;-73
2023/06/22 09:23:19;;;;;;;35.38;32.97;;;24.00;99.90;;;;;;5082789;28;20059;-74
2023/06/22 09:25:47;;;;;;;35.13;32.80;;;24.30;99.90;;;;;;5082025;28;20101;-73
2023/06/22 09:28:15;;;;;;;36.15;33.58;;;24.60;99.90;;;;;;5082321;28;20044;-73
2023/06/22 09:30:44;;;;;;;35.50;32.88;;;24.10;99.90;;;;;;5079948;28;20090;-72
2023/06/22 09:33:11;;;;;;;34.50;32.08;;;24.10;99.90;;;;;;5084722;28;20047;-72
2023/06/22 09:35:38;;;;;;;34.95;32.45;;;24.10;99.90;;;;;;5085147;28;20036;-74
2023/06/22 09:38:05;;;;;;;34.55;32.03;;;24.60;99.90;;;;;;5075386;28;20065;-73
2023/06/22 09:40:35;;;;;;;36.30;33.55;;;25.20;99.90;;;;;;5081470;28;20043;-73
2023/06/22 09:43:02;;;;;;;35.95;33.25;;;25.10;99.90;;;;;;5088873;28;20122;-73
2023/06/22 09:45:28;;;;;;;38.80;35.90;;;24.80;99.90;;;;;;5067374;28;20562;-73
2023/06/22 09:47:55;;;;;;;38.75;35.75;;;24.40;99.90;;;;;;5067394;28;20098;-72
2023/06/22 09:50:22;;;;;;;38.47;35.45;;;24.10;99.90;;;;;;5081856;28;20032;-73
2023/06/22 09:52:54;;;;;;;37.15;34.30;;;24.00;99.90;;;;;;5064521;28;20689;-73
2023/06/22 09:55:21;;;;;;;37.85;35.03;;;24.40;99.90;;;;;;5061255;28;20090;-74
2023/06/22 09:57:48;;;;;;;40.72;37.30;;;24.40;99.90;;;;;;5071553;28;20056;-73
2023/06/22 10:00:17;;;;;;;39.83;36.63;;;24.30;99.90;;;;;;5082830;28;20048;-72
2023/06/22 10:02:44;;;;;;;44.65;35.25;;;24.50;99.90;;;;;;5083786;28;20043;-72
2023/06/22 10:05:11;;;;;;;36.60;33.92;;;24.80;99.90;;;;;;5069156;28;20043;-72
2023/06/22 10:07:42;;;;;;;35.22;32.75;;;25.20;99.90;;;;;;5069461;28;20505;-73
2023/06/22 10:10:10;;;;;;;36.45;33.83;;;25.20;99.90;;;;;;5084816;28;20040;-72
2023/06/22 10:12:41;;;;;;;36.08;33.28;;;25.40;99.90;;;;;;5078504;28;20089;-70
2023/06/22 10:15:09;;;;;;;36.38;33.78;;;25.50;99.90;;;;;;5071701;28;20300;-72
2023/06/22 10:17:36;;;;;;;37.15;34.35;;;25.80;99.90;;;;;;5084203;28;20054;-72
2023/06/22 10:20:10;;;;;;;38.25;35.15;;;26.10;99.90;;;;;;5085749;28;20114;-72
2023/06/22 10:22:42;;;;;;;36.03;32.97;;;26.30;99.90;;;;;;5077535;28;20052;-71
2023/06/22 10:25:11;;;;;;;35.22;32.80;;;26.70;99.90;;;;;;5066766;28;20243;-71
2023/06/22 10:27:39;;;;;;;38.17;35.45;;;26.90;99.90;;;;;;5048225;28;20429;-71
2023/06/22 10:30:12;;;;;;;36.47;33.78;;;27.20;99.90;;;;;;5065912;28;20043;-71
2023/06/22 10:32:42;;;;;;;37.17;34.58;;;27.40;99.90;;;;;;5066504;28;20040;-71
2023/06/22 10:35:15;;;;;;;38.65;35.70;;;27.60;99.90;;;;;;5072357;28;20065;-72
2023/06/22 10:37:44;;;;;;;37.10;34.20;;;27.20;99.90;;;;;;5063762;28;20517;-74
2023/06/22 10:40:13;;;;;;;35.53;33.05;;;26.80;99.90;;;;;;5070933;28;20059;-70
2023/06/22 10:42:39;;;;;;;37.00;33.42;;;26.30;99.90;;;;;;5070795;28;20028;-71
2023/06/22 10:45:08;;;;;;;33.88;31.45;;;26.10;99.90;;;;;;5070840;28;20108;-73
2023/06/22 10:47:35;;;;;;;35.53;33.03;;;26.30;99.90;;;;;;5085540;28;20048;-71
2023/06/22 10:50:03;;;;;;;35.97;33.25;;;26.30;99.90;;;;;;5070154;28;20052;-71
2023/06/22 10:52:30;;;;;;;37.03;34.13;;;26.20;99.90;;;;;;5067518;28;20119;-73
2023/06/22 10:54:57;;;;;;;35.63;33.15;;;26.10;99.90;;;;;;5080835;28;20690;-72
2023/06/22 10:57:24;;;;;;;35.10;32.45;;;26.00;99.90;;;;;;5082672;28;20036;-73
2023/06/22 10:59:51;;;;;;;36.10;33.17;;;25.80;99.90;;;;;;5067944;28;20047;-72
2023/06/22 11:02:17;;;;;;;36.95;34.25;;;25.60;99.90;;;;;;5052661;28;20046;-73
2023/06/22 11:04:46;;;;;;;37.92;35.13;;;25.80;99.90;;;;;;5068110;28;20039;-73
2023/06/22 11:07:13;;;;;;;35.03;32.20;;;25.50;99.90;;;;;;5085553;28;20150;-72
2023/06/22 11:09:39;;;;;;;34.97;32.40;;;25.80;99.90;;;;;;5079118;28;20036;-72
2023/06/22 11:12:07;;;;;;;35.67;32.85;;;25.80;99.90;;;;;;5084540;28;20036;-73
2023/06/22 11:14:33;;;;;;;35.50;32.72;;;25.80;99.90;;;;;;5073187;28;20044;-72
2023/06/22 11:17:00;;;;;;;35.58;32.85;;;25.90;99.90;;;;;;5085198;28;20486;-72
2023/06/22 11:19:27;;;;;;;38.25;35.33;;;25.80;99.90;;;;;;5092389;28;20532;-70
2023/06/22 11:21:53;;;;;;;36.67;34.08;;;26.10;99.90;;;;;;5087285;28;20048;-72
2023/06/22 11:24:20;;;;;;;36.22;33.63;;;26.20;99.90;;;;;;5089832;28;20099;-72
2023/06/22 11:26:47;;;;;;;40.42;37.15;;;26.50;99.90;;;;;;5084645;28;20140;-71
2023/06/22 11:29:14;;;;;;;40.63;37.63;;;26.40;99.90;;;;;;5087228;28;20082;-72
2023/06/22 11:32:01;;;;;;;40.47;37.53;;;25.70;99.90;;;;;;5083593;28;20876;-72
2023/06/22 11:34:28;;;;;;;36.60;33.70;;;25.90;99.90;;;;;;5089218;28;20097;-72
2023/06/22 11:36:54;;;;;;;38.15;35.45;;;26.10;99.90;;;;;;5070649;28;20051;-72
2023/06/22 11:39:21;;;;;;;38.10;35.42;;;25.90;99.90;;;;;;5093408;28;20040;-71
2023/06/22 11:42:05;;;;;;;36.90;34.25;;;26.30;99.90;;;;;;5074692;28;20058;-72
2023/06/22 11:44:32;;;;;;;36.67;33.97;;;26.70;99.90;;;;;;5086201;28;20133;-72
2023/06/22 11:47:00;;;;;;;37.92;35.22;;;26.60;99.90;;;;;;5086868;28;20053;-70
2023/06/22 11:49:27;;;;;;;38.53;35.55;;;26.10;99.90;;;;;;5102979;28;20043;-71
2023/06/22 11:51:54;;;;;;;40.10;37.03;;;25.80;99.90;;;;;;5096578;28;20048;-73
2023/06/22 11:54:21;;;;;;;38.75;35.95;;;25.80;99.90;;;;;;5087827;28;20062;-73
2023/06/22 11:56:48;;;;;;;37.30;34.75;;;25.70;99.90;;;;;;5060002;28;20130;-72
2023/06/22 11:59:15;;;;;;;36.67;34.05;;;26.00;99.90;;;;;;5077122;28;20051;-72
2023/06/22 12:01:42;;;;;;;37.47;34.53;;;26.10;99.90;;;;;;5074399;28;20060;-71
2023/06/22 12:04:10;;;;;;;37.03;34.33;;;26.00;99.90;;;;;;5075267;28;20057;-73
2023/06/22 12:06:41;;;;;;;37.40;34.45;;;26.10;99.90;;;;;;5069323;28;20036;-72
2023/06/22 12:09:09;;;;;;;39.88;36.92;;;26.60;99.90;;;;;;5094661;28;20110;-72
2023/06/22 12:11:35;;;;;;;37.55;34.88;;;26.20;99.90;;;;;;5070610;28;20081;-72
2023/06/22 12:14:02;;;;;;;36.63;33.70;;;25.90;99.90;;;;;;5087084;28;20070;-71
2023/06/22 12:16:29;;;;;;;38.08;35.00;;;25.90;99.90;;;;;;5086554;28;20039;-72
2023/06/22 12:18:56;;;;;;;39.03;36.13;;;25.70;99.90;;;;;;5070069;28;20043;-71
2023/06/22 12:21:23;;;;;;;36.35;33.67;;;25.50;99.90;;;;;;5064784;28;20646;-73
2023/06/22 12:23:49;;;;;;;36.05;33.30;;;25.70;99.90;;;;;;5073092;28;20075;-73
2023/06/22 12:26:16;;;;;;;35.45;32.75;;;25.70;99.90;;;;;;5070042;28;20039;-73
2023/06/22 12:28:43;;;;;;;35.65;32.75;;;25.90;99.90;;;;;;5094141;28;20074;-72
2023/06/22 12:31:10;;;;;;;35.72;32.83;;;26.00;99.90;;;;;;5077489;28;20043;-74
2023/06/22 12:33:36;;;;;;;35.75;32.72;;;26.00;99.90;;;;;;5086421;28;20074;-73